sensor_id;sensor_type;location;lat;lon;timestamp;pressure;altitude;pressure_sealevel;temperature
43802;BMP280;29429;51.074;13.764;2023-11-21T00:00:17;99274.59;;;10.03
43802;BMP280;29429;51.074;13.764;2023-11-21T00:02:44;99272.75;;;10.03
43802;BMP280;29429;51.074;13.764;2023-11-21T00:05:14;99276.63;;;10.07
43802;BMP280;29429;51.074;13.764;2023-11-21T00:07:41;99277.81;;;10.11
43802;BMP280;29429;51.074;13.764;2023-11-21T00:10:10;99272.47;;;10.11
43802;BMP280;29429;51.074;13.764;2023-11-21T00:12:37;99270.03;;;10.10
43802;BMP280;29429;51.074;13.764;2023-11-21T00:15:05;99265.53;;;10.10
43802;BMP280;29429;51.074;13.764;2023-11-21T00:17:32;99276.81;;;10.12
43802;BMP280;29429;51.074;13.764;2023-11-21T00:19:59;99274.34;;;10.11
43802;BMP280;29429;51.074;13.764;2023-11-21T00:22:26;99279.88;;;10.09
43802;BMP280;29429;51.074;13.764;2023-11-21T00:24:53;99284.19;;;10.10
43802;BMP280;29429;51.074;13.764;2023-11-21T00:27:20;99277.63;;;10.13
43802;BMP280;29429;51.074;13.764;2023-11-21T00:29:47;99274.72;;;10.21
43802;BMP280;29429;51.074;13.764;2023-11-21T00:32:14;99269.41;;;10.21
43802;BMP280;29429;51.074;13.764;2023-11-21T00:34:41;99279.41;;;10.25
43802;BMP280;29429;51.074;13.764;2023-11-21T00:37:09;99283.91;;;10.25
43802;BMP280;29429;51.074;13.764;2023-11-21T00:39:36;99284.97;;;10.24
43802;BMP280;29429;51.074;13.764;2023-11-21T00:42:03;99286.81;;;10.23
43802;BMP280;29429;51.074;13.764;2023-11-21T00:44:31;99279.00;;;10.22
43802;BMP280;29429;51.074;13.764;2023-11-21T00:46:58;99282.66;;;10.27
43802;BMP280;29429;51.074;13.764;2023-11-21T00:49:25;99285.97;;;10.29
43802;BMP280;29429;51.074;13.764;2023-11-21T00:51:52;99292.28;;;10.35
43802;BMP280;29429;51.074;13.764;2023-11-21T00:54:19;99289.81;;;10.33
43802;BMP280;29429;51.074;13.764;2023-11-21T00:56:46;99298.41;;;10.35
43802;BMP280;29429;51.074;13.764;2023-11-21T00:59:16;99302.31;;;10.33
43802;BMP280;29429;51.074;13.764;2023-11-21T01:01:43;99297.81;;;10.33
43802;BMP280;29429;51.074;13.764;2023-11-21T01:04:10;99307.44;;;10.34
43802;BMP280;29429;51.074;13.764;2023-11-21T01:06:37;99302.94;;;10.35
43802;BMP280;29429;51.074;13.764;2023-11-21T01:09:05;99302.31;;;10.33
43802;BMP280;29429;51.074;13.764;2023-11-21T01:11:36;99300.69;;;10.32
43802;BMP280;29429;51.074;13.764;2023-11-21T01:14:06;99298.63;;;10.34
43802;BMP280;29429;51.074;13.764;2023-11-21T01:16:35;99303.97;;;10.34
43802;BMP280;29429;51.074;13.764;2023-11-21T01:19:03;99302.31;;;10.33
43802;BMP280;29429;51.074;13.764;2023-11-21T01:21:31;99303.53;;;10.37
43802;BMP280;29429;51.074;13.764;2023-11-21T01:23:58;99310.28;;;10.39
43802;BMP280;29429;51.074;13.764;2023-11-21T01:26:25;99309.06;;;10.35
43802;BMP280;29429;51.074;13.764;2023-11-21T01:28:52;99306.22;;;10.37
43802;BMP280;29429;51.074;13.764;2023-11-21T01:31:19;99310.47;;;10.38
43802;BMP280;29429;51.074;13.764;2023-11-21T01:33:47;99309.47;;;10.39
43802;BMP280;29429;51.074;13.764;2023-11-21T01:36:15;99306.81;;;10.39
43802;BMP280;29429;51.074;13.764;2023-11-21T01:38:44;99312.94;;;10.39
43802;BMP280;29429;51.074;13.764;2023-11-21T01:41:10;99311.97;;;10.34
43802;BMP280;29429;51.074;13.764;2023-11-21T01:43:40;99306.47;;;10.29
43802;BMP280;29429;51.074;13.764;2023-11-21T01:46:09;99311.78;;;10.29
43802;BMP280;29429;51.074;13.764;2023-11-21T01:48:36;99312.81;;;10.28
43802;BMP280;29429;51.074;13.764;2023-11-21T01:51:05;99310.13;;;10.28
43802;BMP280;29429;51.074;13.764;2023-11-21T01:53:33;99309.31;;;10.27
43802;BMP280;29429;51.074;13.764;2023-11-21T01:56:00;99304.38;;;10.31
43802;BMP280;29429;51.074;13.764;2023-11-21T01:58:27;99303.97;;;10.34
43802;BMP280;29429;51.074;13.764;2023-11-21T02:00:54;99311.53;;;10.37
43802;BMP280;29429;51.074;13.764;2023-11-21T02:03:22;99302.72;;;10.36
43802;BMP280;29429;51.074;13.764;2023-11-21T02:05:49;99308.44;;;10.40
43802;BMP280;29429;51.074;13.764;2023-11-21T02:08:16;99302.50;;;10.38
43802;BMP280;29429;51.074;13.764;2023-11-21T02:10:43;99309.25;;;10.40
43802;BMP280;29429;51.074;13.764;2023-11-21T02:13:10;99311.91;;;10.40
43802;BMP280;29429;51.074;13.764;2023-11-21T02:15:38;99315.41;;;10.41
43802;BMP280;29429;51.074;13.764;2023-11-21T02:18:05;99316.88;;;10.37
43802;BMP280;29429;51.074;13.764;2023-11-21T02:20:33;99316.28;;;10.35
43802;BMP280;29429;51.074;13.764;2023-11-21T02:23:03;99319.72;;;10.35
43802;BMP280;29429;51.074;13.764;2023-11-21T02:25:32;99321.53;;;10.42
43802;BMP280;29429;51.074;13.764;2023-11-21T02:28:02;99323.19;;;10.43
43802;BMP280;29429;51.074;13.764;2023-11-21T02:30:30;99316.03;;;10.43
43802;BMP280;29429;51.074;13.764;2023-11-21T02:33:01;99327.28;;;10.45
43802;BMP280;29429;51.074;13.764;2023-11-21T02:35:30;99316.63;;;10.38
43802;BMP280;29429;51.074;13.764;2023-11-21T02:37:59;99324.03;;;10.36
43802;BMP280;29429;51.074;13.764;2023-11-21T02:40:26;99320.78;;;10.34
43802;BMP280;29429;51.074;13.764;2023-11-21T02:42:54;99326.72;;;10.36
43802;BMP280;29429;51.074;13.764;2023-11-21T02:45:21;99326.53;;;10.31
43802;BMP280;29429;51.074;13.764;2023-11-21T02:47:50;99328.19;;;10.26
43802;BMP280;29429;51.074;13.764;2023-11-21T02:50:17;99322.69;;;10.21
43802;BMP280;29429;51.074;13.764;2023-11-21T02:52:46;99325.78;;;10.18
43802;BMP280;29429;51.074;13.764;2023-11-21T02:55:13;99327.63;;;10.11
43802;BMP280;29429;51.074;13.764;2023-11-21T02:57:41;99330.28;;;10.11
43802;BMP280;29429;51.074;13.764;2023-11-21T03:00:09;99328.47;;;10.05
43802;BMP280;29429;51.074;13.764;2023-11-21T03:02:40;99334.03;;;9.97
43802;BMP280;29429;51.074;13.764;2023-11-21T03:05:08;99337.34;;;9.92
43802;BMP280;29429;51.074;13.764;2023-11-21T03:07:39;99330.78;;;9.88
43802;BMP280;29429;51.074;13.764;2023-11-21T03:10:08;99336.94;;;9.89
43802;BMP280;29429;51.074;13.764;2023-11-21T03:12:40;99336.34;;;9.87
43802;BMP280;29429;51.074;13.764;2023-11-21T03:15:08;99328.75;;;9.84
43802;BMP280;29429;51.074;13.764;2023-11-21T03:17:36;99335.09;;;9.82
43802;BMP280;29429;51.074;13.764;2023-11-21T03:20:05;99344.75;;;9.77
43802;BMP280;29429;51.074;13.764;2023-11-21T03:22:32;99340.47;;;9.69
43802;BMP280;29429;51.074;13.764;2023-11-21T03:25:00;99344.78;;;9.70
43802;BMP280;29429;51.074;13.764;2023-11-21T03:27:28;99343.13;;;9.69
43802;BMP280;29429;51.074;13.764;2023-11-21T03:29:54;99346.84;;;9.68
43802;BMP280;29429;51.074;13.764;2023-11-21T03:32:22;99343.16;;;9.63
43802;BMP280;29429;51.074;13.764;2023-11-21T03:34:57;99342.75;;;9.59
43802;BMP280;29429;51.074;13.764;2023-11-21T03:37:26;99351.16;;;9.56
43802;BMP280;29429;51.074;13.764;2023-11-21T03:39:58;99341.97;;;9.52
43802;BMP280;29429;51.074;13.764;2023-11-21T03:42:25;99347.28;;;9.52
43802;BMP280;29429;51.074;13.764;2023-11-21T03:44:53;99352.19;;;9.49
43802;BMP280;29429;51.074;13.764;2023-11-21T03:47:20;99357.72;;;9.47
43802;BMP280;29429;51.074;13.764;2023-11-21T03:49:47;99353.19;;;9.48
43802;BMP280;29429;51.074;13.764;2023-11-21T03:52:15;99358.94;;;9.51
43802;BMP280;29429;51.074;13.764;2023-11-21T03:54:43;99353.19;;;9.48
43802;BMP280;29429;51.074;13.764;2023-11-21T03:57:11;99357.09;;;9.52
43802;BMP280;29429;51.074;13.764;2023-11-21T03:59:42;99359.53;;;9.53
43802;BMP280;29429;51.074;13.764;2023-11-21T04:02:09;99352.38;;;9.54
43802;BMP280;29429;51.074;13.764;2023-11-21T04:04:36;99353.00;;;9.56
43802;BMP280;29429;51.074;13.764;2023-11-21T04:07:04;99354.84;;;9.55
43802;BMP280;29429;51.074;13.764;2023-11-21T04:09:31;99361.78;;;9.56
43802;BMP280;29429;51.074;13.764;2023-11-21T04:11:58;99352.78;;;9.57
43802;BMP280;29429;51.074;13.764;2023-11-21T04:14:26;99357.72;;;9.60
43802;BMP280;29429;51.074;13.764;2023-11-21T04:16:52;99360.38;;;9.60
43802;BMP280;29429;51.074;13.764;2023-11-21T04:19:20;99358.72;;;9.59
43802;BMP280;29429;51.074;13.764;2023-11-21T04:21:47;99359.31;;;9.61
43802;BMP280;29429;51.074;13.764;2023-11-21T04:24:15;99359.31;;;9.61
43802;BMP280;29429;51.074;13.764;2023-11-21T04:26:44;99359.53;;;9.60
43802;BMP280;29429;51.074;13.764;2023-11-21T04:29:11;99362.41;;;9.58
43802;BMP280;29429;51.074;13.764;2023-11-21T04:31:37;99364.03;;;9.59
43802;BMP280;29429;51.074;13.764;2023-11-21T04:34:05;99363.03;;;9.60
43802;BMP280;29429;51.074;13.764;2023-11-21T04:36:32;99369.97;;;9.61
43802;BMP280;29429;51.074;13.764;2023-11-21T04:38:59;99375.09;;;9.63
43802;BMP280;29429;51.074;13.764;2023-11-21T04:41:25;99377.16;;;9.61
43802;BMP280;29429;51.074;13.764;2023-11-21T04:43:52;99385.94;;;9.61
43802;BMP280;29429;51.074;13.764;2023-11-21T04:46:19;99386.16;;;9.60
43802;BMP280;29429;51.074;13.764;2023-11-21T04:48:46;99389.25;;;9.63
43802;BMP280;29429;51.074;13.764;2023-11-21T04:51:13;99389.84;;;9.65
43802;BMP280;29429;51.074;13.764;2023-11-21T04:53:40;99389.44;;;9.68
43802;BMP280;29429;51.074;13.764;2023-11-21T04:56:08;99392.28;;;9.73
43802;BMP280;29429;51.074;13.764;2023-11-21T04:58:35;99389.00;;;9.78
43802;BMP280;29429;51.074;13.764;2023-11-21T05:01:02;99389.81;;;9.78
43802;BMP280;29429;51.074;13.764;2023-11-21T05:03:34;99393.31;;;9.79
43802;BMP280;29429;51.074;13.764;2023-11-21T05:06:02;99394.31;;;9.85
43802;BMP280;29429;51.074;13.764;2023-11-21T05:08:30;99387.94;;;9.86
43802;BMP280;29429;51.074;13.764;2023-11-21T05:10:57;99392.25;;;9.87
43802;BMP280;29429;51.074;13.764;2023-11-21T05:13:24;99396.34;;;9.89
43802;BMP280;29429;51.074;13.764;2023-11-21T05:15:55;99397.19;;;9.90
43802;BMP280;29429;51.074;13.764;2023-11-21T05:18:24;99402.50;;;9.90
43802;BMP280;29429;51.074;13.764;2023-11-21T05:20:53;99401.88;;;9.94
43802;BMP280;29429;51.074;13.764;2023-11-21T05:23:20;99407.38;;;9.99
43802;BMP280;29429;51.074;13.764;2023-11-21T05:25:47;99413.13;;;10.03
43802;BMP280;29429;51.074;13.764;2023-11-21T05:28:14;99407.16;;;10.01
43802;BMP280;29429;51.074;13.764;2023-11-21T05:30:41;99412.28;;;10.02
43802;BMP280;29429;51.074;13.764;2023-11-21T05:33:08;99411.06;;;9.98
43802;BMP280;29429;51.074;13.764;2023-11-21T05:35:35;99414.56;;;9.99
43802;BMP280;29429;51.074;13.764;2023-11-21T05:38:02;99416.19;;;10.00
43802;BMP280;29429;51.074;13.764;2023-11-21T05:40:29;99421.72;;;9.98
43802;BMP280;29429;51.074;13.764;2023-11-21T05:42:56;99422.13;;;10.02
43802;BMP280;29429;51.074;13.764;2023-11-21T05:45:23;99424.59;;;10.03
43802;BMP280;29429;51.074;13.764;2023-11-21T05:47:50;99417.22;;;10.05
43802;BMP280;29429;51.074;13.764;2023-11-21T05:50:17;99420.47;;;10.01
43802;BMP280;29429;51.074;13.764;2023-11-21T05:52:47;99421.13;;;10.03
43802;BMP280;29429;51.074;13.764;2023-11-21T05:55:14;99427.44;;;10.02
43802;BMP280;29429;51.074;13.764;2023-11-21T05:57:43;99424.78;;;10.02
43802;BMP280;29429;51.074;13.764;2023-11-21T06:00:13;99427.44;;;10.02
43802;BMP280;29429;51.074;13.764;2023-11-21T06:02:49;99429.53;;;10.00
43802;BMP280;29429;51.074;13.764;2023-11-21T06:05:23;99421.94;;;9.97
43802;BMP280;29429;51.074;13.764;2023-11-21T06:07:53;99435.25;;;9.97
43802;BMP280;29429;51.074;13.764;2023-11-21T06:10:21;99435.06;;;9.92
43802;BMP280;29429;51.074;13.764;2023-11-21T06:12:51;99436.91;;;9.91
43802;BMP280;29429;51.074;13.764;2023-11-21T06:15:19;99439.78;;;9.90
43802;BMP280;29429;51.074;13.764;2023-11-21T06:17:48;99444.69;;;9.93
43802;BMP280;29429;51.074;13.764;2023-11-21T06:20:19;99448.38;;;9.92
43802;BMP280;29429;51.074;13.764;2023-11-21T06:22:48;99444.06;;;9.91
43802;BMP280;29429;51.074;13.764;2023-11-21T06:25:16;99458.22;;;9.91
43802;BMP280;29429;51.074;13.764;2023-11-21T06:27:46;99445.91;;;9.90
43802;BMP280;29429;51.074;13.764;2023-11-21T06:30:16;99447.38;;;9.93
43802;BMP280;29429;51.074;13.764;2023-11-21T06:32:46;99451.66;;;9.94
43802;BMP280;29429;51.074;13.764;2023-11-21T06:35:15;99456.56;;;9.90
43802;BMP280;29429;51.074;13.764;2023-11-21T06:37:44;99455.78;;;9.90
43802;BMP280;29429;51.074;13.764;2023-11-21T06:40:17;99465.59;;;9.89
43802;BMP280;29429;51.074;13.764;2023-11-21T06:42:49;99464.38;;;9.92
43802;BMP280;29429;51.074;13.764;2023-11-21T06:45:17;99471.53;;;9.98
43802;BMP280;29429;51.074;13.764;2023-11-21T06:47:47;99470.50;;;9.99
43802;BMP280;29429;51.074;13.764;2023-11-21T06:50:15;99466.41;;;10.03
43802;BMP280;29429;51.074;13.764;2023-11-21T06:52:42;99457.59;;;10.02
43802;BMP280;29429;51.074;13.764;2023-11-21T06:55:10;99466.19;;;10.04
43802;BMP280;29429;51.074;13.764;2023-11-21T06:57:37;99464.56;;;10.03
43802;BMP280;29429;51.074;13.764;2023-11-21T07:00:05;99471.72;;;10.03
43802;BMP280;29429;51.074;13.764;2023-11-21T07:02:35;99467.63;;;10.00
43802;BMP280;29429;51.074;13.764;2023-11-21T07:05:03;99470.91;;;10.02
43802;BMP280;29429;51.074;13.764;2023-11-21T07:07:30;99476.19;;;10.09
43802;BMP280;29429;51.074;13.764;2023-11-21T07:09:57;99477.25;;;10.08
43802;BMP280;29429;51.074;13.764;2023-11-21T07:12:24;99472.94;;;10.07
43802;BMP280;29429;51.074;13.764;2023-11-21T07:14:52;99473.34;;;10.10
43802;BMP280;29429;51.074;13.764;2023-11-21T07:17:20;99484.81;;;10.04
43802;BMP280;29429;51.074;13.764;2023-11-21T07:19:48;99480.94;;;10.07
43802;BMP280;29429;51.074;13.764;2023-11-21T07:22:16;99490.16;;;10.04
43802;BMP280;29429;51.074;13.764;2023-11-21T07:24:49;99482.38;;;10.03
43802;BMP280;29429;51.074;13.764;2023-11-21T07:27:19;99493.22;;;10.08
43802;BMP280;29429;51.074;13.764;2023-11-21T07:29:46;99491.41;;;10.08
43802;BMP280;29429;51.074;13.764;2023-11-21T07:32:15;99487.50;;;10.11
43802;BMP280;29429;51.074;13.764;2023-11-21T07:34:42;99494.44;;;10.12
43802;BMP280;29429;51.074;13.764;2023-11-21T07:37:09;99486.06;;;10.15
43802;BMP280;29429;51.074;13.764;2023-11-21T07:39:36;99493.66;;;10.18
43802;BMP280;29429;51.074;13.764;2023-11-21T07:42:04;99492.81;;;10.24
43802;BMP280;29429;51.074;13.764;2023-11-21T07:44:31;99498.72;;;10.39
43802;BMP280;29429;51.074;13.764;2023-11-21T07:46:58;99507.91;;;10.50
43802;BMP280;29429;51.074;13.764;2023-11-21T07:49:25;99493.34;;;10.52
43802;BMP280;29429;51.074;13.764;2023-11-21T07:51:53;99505.03;;;10.51
43802;BMP280;29429;51.074;13.764;2023-11-21T07:54:20;99509.56;;;10.51
43802;BMP280;29429;51.074;13.764;2023-11-21T07:56:48;99515.69;;;10.51
43802;BMP280;29429;51.074;13.764;2023-11-21T07:59:15;99513.47;;;10.48
43802;BMP280;29429;51.074;13.764;2023-11-21T08:01:42;99514.50;;;10.47
43802;BMP280;29429;51.074;13.764;2023-11-21T08:04:10;99517.56;;;10.51
43802;BMP280;29429;51.074;13.764;2023-11-21T08:06:37;99522.47;;;10.54
43802;BMP280;29429;51.074;13.764;2023-11-21T08:09:04;99515.91;;;10.50
43802;BMP280;29429;51.074;13.764;2023-11-21T08:11:31;99518.34;;;10.51
43802;BMP280;29429;51.074;13.764;2023-11-21T08:13:59;99517.16;;;10.47
43802;BMP280;29429;51.074;13.764;2023-11-21T08:16:27;99519.22;;;10.45
43802;BMP280;29429;51.074;13.764;2023-11-21T08:18:54;99518.81;;;10.42
43802;BMP280;29429;51.074;13.764;2023-11-21T08:21:22;99526.41;;;10.38
43802;BMP280;29429;51.074;13.764;2023-11-21T08:23:51;99521.72;;;10.27
43802;BMP280;29429;51.074;13.764;2023-11-21T08:26:21;99519.66;;;10.22
43802;BMP280;29429;51.074;13.764;2023-11-21T08:28:49;99527.88;;;10.21
43802;BMP280;29429;51.074;13.764;2023-11-21T08:31:16;99542.22;;;10.20
43802;BMP280;29429;51.074;13.764;2023-11-21T08:33:43;99536.28;;;10.18
43802;BMP280;29429;51.074;13.764;2023-11-21T08:36:10;99532.19;;;10.15
43802;BMP280;29429;51.074;13.764;2023-11-21T08:38:39;99540.19;;;10.15
43802;BMP280;29429;51.074;13.764;2023-11-21T08:41:07;99529.75;;;10.14
43802;BMP280;29429;51.074;13.764;2023-11-21T08:43:35;99540.19;;;10.15
43802;BMP280;29429;51.074;13.764;2023-11-21T08:46:07;99539.59;;;10.13
43802;BMP280;29429;51.074;13.764;2023-11-21T08:48:36;99539.34;;;10.02
43802;BMP280;29429;51.074;13.764;2023-11-21T08:51:04;99543.88;;;9.95
43802;BMP280;29429;51.074;13.764;2023-11-21T08:53:32;99535.66;;;9.96
43802;BMP280;29429;51.074;13.764;2023-11-21T08:55:59;99546.34;;;9.90
43802;BMP280;29429;51.074;13.764;2023-11-21T08:58:27;99543.44;;;9.91
43802;BMP280;29429;51.074;13.764;2023-11-21T09:00:54;99545.91;;;9.93
43802;BMP280;29429;51.074;13.764;2023-11-21T09:03:21;99547.53;;;9.94
43802;BMP280;29429;51.074;13.764;2023-11-21T09:05:48;99543.44;;;9.91
43802;BMP280;29429;51.074;13.764;2023-11-21T09:08:15;99555.34;;;9.95
43802;BMP280;29429;51.074;13.764;2023-11-21T09:10:42;99559.84;;;9.95
43802;BMP280;29429;51.074;13.764;2023-11-21T09:13:10;99563.94;;;9.91
43802;BMP280;29429;51.074;13.764;2023-11-21T09:15:37;99563.94;;;9.84
43802;BMP280;29429;51.074;13.764;2023-11-21T09:18:04;99574.41;;;9.79
43802;BMP280;29429;51.074;13.764;2023-11-21T09:20:31;99572.97;;;9.76
43802;BMP280;29429;51.074;13.764;2023-11-21T09:22:58;99570.09;;;9.71
43802;BMP280;29429;51.074;13.764;2023-11-21T09:25:25;99571.28;;;9.69
43802;BMP280;29429;51.074;13.764;2023-11-21T09:27:53;99584.00;;;9.73
43802;BMP280;29429;51.074;13.764;2023-11-21T09:30:20;99575.81;;;9.68
43802;BMP280;29429;51.074;13.764;2023-11-21T09:32:46;99579.50;;;9.74
43802;BMP280;29429;51.074;13.764;2023-11-21T09:35:14;99576.22;;;9.78
43802;BMP280;29429;51.074;13.764;2023-11-21T09:37:43;99582.38;;;9.86
43802;BMP280;29429;51.074;13.764;2023-11-21T09:40:12;99587.28;;;9.75
43802;BMP280;29429;51.074;13.764;2023-11-21T09:42:56;99595.06;;;9.70
43802;BMP280;29429;51.074;13.764;2023-11-21T09:45:36;99595.84;;;9.51
43802;BMP280;29429;51.074;13.764;2023-11-21T09:48:06;99599.91;;;9.41
43802;BMP280;29429;51.074;13.764;2023-11-21T09:50:36;99594.16;;;9.31
43802;BMP280;29429;51.074;13.764;2023-11-21T09:53:18;99611.34;;;9.28
43802;BMP280;29429;51.074;13.764;2023-11-21T09:55:51;99620.50;;;9.19
43802;BMP280;29429;51.074;13.764;2023-11-21T09:58:20;99621.91;;;9.08
43802;BMP280;29429;51.074;13.764;2023-11-21T10:00:55;99617.94;;;8.91
43802;BMP280;29429;51.074;13.764;2023-11-21T10:03:23;99624.41;;;8.76
43802;BMP280;29429;51.074;13.764;2023-11-21T10:05:53;99643.19;;;8.68
43802;BMP280;29429;51.074;13.764;2023-11-21T10:08:22;99636.97;;;8.61
43802;BMP280;29429;51.074;13.764;2023-11-21T10:10:53;99653.97;;;8.60
43802;BMP280;29429;51.074;13.764;2023-11-21T10:13:21;99639.31;;;8.42
43802;BMP280;29429;51.074;13.764;2023-11-21T10:15:51;99636.09;;;8.26
43802;BMP280;29429;51.074;13.764;2023-11-21T10:18:20;99652.72;;;8.13
43802;BMP280;29429;51.074;13.764;2023-11-21T10:20:50;99646.34;;;8.08
43802;BMP280;29429;51.074;13.764;2023-11-21T10:23:22;99650.03;;;8.07
43802;BMP280;29429;51.074;13.764;2023-11-21T10:25:52;99659.59;;;8.01
43802;BMP280;29429;51.074;13.764;2023-11-21T10:28:19;99660.72;;;7.92
43802;BMP280;29429;51.074;13.764;2023-11-21T10:30:48;99664.81;;;7.94
43802;BMP280;29429;51.074;13.764;2023-11-21T10:33:15;99667.19;;;8.04
43802;BMP280;29429;51.074;13.764;2023-11-21T10:38:09;99674.81;;;8.14
43802;BMP280;29429;51.074;13.764;2023-11-21T10:40:44;99683.47;;;8.22
43802;BMP280;29429;51.074;13.764;2023-11-21T10:43:12;99688.78;;;8.22
43802;BMP280;29429;51.074;13.764;2023-11-21T10:45:40;99689.28;;;8.11
43802;BMP280;29429;51.074;13.764;2023-11-21T10:48:15;99687.38;;;8.05
43802;BMP280;29429;51.074;13.764;2023-11-21T10:50:46;99690.03;;;8.05
43802;BMP280;29429;51.074;13.764;2023-11-21T10:53:14;99685.25;;;7.94
43802;BMP280;29429;51.074;13.764;2023-11-21T10:55:42;99696.50;;;7.96
43802;BMP280;29429;51.074;13.764;2023-11-21T10:58:14;99700.41;;;8.00
43802;BMP280;29429;51.074;13.764;2023-11-21T11:00:43;99698.13;;;7.97
43802;BMP280;29429;51.074;13.764;2023-11-21T11:03:12;99703.38;;;7.90
43802;BMP280;29429;51.074;13.764;2023-11-21T11:05:47;99699.09;;;7.89
43802;BMP280;29429;51.074;13.764;2023-11-21T11:08:21;99694.59;;;7.90
43802;BMP280;29429;51.074;13.764;2023-11-21T11:10:55;99699.34;;;7.94
43802;BMP280;29429;51.074;13.764;2023-11-21T11:13:22;99703.19;;;7.92
43802;BMP280;29429;51.074;13.764;2023-11-21T11:15:58;99707.28;;;7.94
43802;BMP280;29429;51.074;13.764;2023-11-21T11:18:30;99713.81;;;7.92
43802;BMP280;29429;51.074;13.764;2023-11-21T11:27:34;99729.81;;;7.63
43802;BMP280;29429;51.074;13.764;2023-11-21T11:36:31;99728.66;;;7.51
43802;BMP280;29429;51.074;13.764;2023-11-21T11:39:01;99732.97;;;7.52
43802;BMP280;29429;51.074;13.764;2023-11-21T11:41:31;99734.59;;;7.53
43802;BMP280;29429;51.074;13.764;2023-11-21T11:44:02;99736.53;;;7.59
43802;BMP280;29429;51.074;13.764;2023-11-21T11:46:42;99735.13;;;7.63
43802;BMP280;29429;51.074;13.764;2023-11-21T11:49:27;99726.06;;;7.57
43802;BMP280;29429;51.074;13.764;2023-11-21T11:52:33;99733.03;;;7.58
43802;BMP280;29429;51.074;13.764;2023-11-21T11:55:03;99744.94;;;7.48
43802;BMP280;29429;51.074;13.764;2023-11-21T11:57:33;99741.03;;;7.44
43802;BMP280;29429;51.074;13.764;2023-11-21T12:00:11;99744.22;;;7.39
43802;BMP280;29429;51.074;13.764;2023-11-21T12:02:45;99743.84;;;7.42
43802;BMP280;29429;51.074;13.764;2023-11-21T12:05:18;99758.56;;;7.45
43802;BMP280;29429;51.074;13.764;2023-11-21T12:08:00;99743.50;;;7.45
43802;BMP280;29429;51.074;13.764;2023-11-21T12:10:36;99749.78;;;7.44
43802;BMP280;29429;51.074;13.764;2023-11-21T12:13:07;99754.56;;;7.34
43802;BMP280;29429;51.074;13.764;2023-11-21T12:15:36;99762.50;;;7.34
43802;BMP280;29429;51.074;13.764;2023-11-21T12:18:04;99766.91;;;7.27
43802;BMP280;29429;51.074;13.764;2023-11-21T12:20:33;99769.84;;;7.17
43802;BMP280;29429;51.074;13.764;2023-11-21T12:23:05;99776.97;;;7.17
43802;BMP280;29429;51.074;13.764;2023-11-21T12:25:32;99775.44;;;7.22
43802;BMP280;29429;51.074;13.764;2023-11-21T12:28:02;99782.38;;;7.23
43802;BMP280;29429;51.074;13.764;2023-11-21T12:30:32;99783.47;;;7.14
43802;BMP280;29429;51.074;13.764;2023-11-21T12:33:03;99785.66;;;7.11
43802;BMP280;29429;51.074;13.764;2023-11-21T12:35:33;99790.41;;;7.15
43802;BMP280;29429;51.074;13.764;2023-11-21T12:38:03;99789.13;;;7.26
43802;BMP280;29429;51.074;13.764;2023-11-21T12:40:31;99783.75;;;7.19
43802;BMP280;29429;51.074;13.764;2023-11-21T12:43:00;99790.75;;;7.12
43802;BMP280;29429;51.074;13.764;2023-11-21T12:45:29;99790.69;;;7.06
43802;BMP280;29429;51.074;13.764;2023-11-21T12:48:01;99797.53;;;7.00
43802;BMP280;29429;51.074;13.764;2023-11-21T12:50:31;99791.59;;;6.98
43802;BMP280;29429;51.074;13.764;2023-11-21T12:53:02;99795.06;;;6.99
43802;BMP280;29429;51.074;13.764;2023-11-21T12:55:32;99816.78;;;6.94
43802;BMP280;29429;51.074;13.764;2023-11-21T12:58:02;99805.19;;;6.95
43802;BMP280;29429;51.074;13.764;2023-11-21T13:00:44;99805.94;;;7.04
43802;BMP280;29429;51.074;13.764;2023-11-21T13:03:14;99817.47;;;6.96
43802;BMP280;29429;51.074;13.764;2023-11-21T13:05:49;99821.47;;;6.92
43802;BMP280;29429;51.074;13.764;2023-11-21T13:08:24;99823.00;;;6.87
43802;BMP280;29429;51.074;13.764;2023-11-21T13:10:56;99827.13;;;6.89
43802;BMP280;29429;51.074;13.764;2023-11-21T13:13:27;99836.78;;;6.82
43802;BMP280;29429;51.074;13.764;2023-11-21T13:16:01;99833.91;;;6.69
43802;BMP280;29429;51.074;13.764;2023-11-21T13:18:31;99835.81;;;6.60
43802;BMP280;29429;51.074;13.764;2023-11-21T13:21:04;99836.34;;;6.56
43802;BMP280;29429;51.074;13.764;2023-11-21T13:23:42;99847.28;;;6.53
43802;BMP280;29429;51.074;13.764;2023-11-21T13:26:10;99843.47;;;6.55
43802;BMP280;29429;51.074;13.764;2023-11-21T13:28:37;99854.25;;;6.54
43802;BMP280;29429;51.074;13.764;2023-11-21T13:31:06;99854.59;;;6.51
43802;BMP280;29429;51.074;13.764;2023-11-21T13:33:39;99850.00;;;6.45
43802;BMP280;29429;51.074;13.764;2023-11-21T13:36:08;99858.22;;;6.50
43802;BMP280;29429;51.074;13.764;2023-11-21T13:38:37;99862.84;;;6.56
43802;BMP280;29429;51.074;13.764;2023-11-21T13:41:09;99860.53;;;6.53
43802;BMP280;29429;51.074;13.764;2023-11-21T13:43:37;99865.88;;;6.45
43802;BMP280;29429;51.074;13.764;2023-11-21T13:46:05;99871.28;;;6.29
43802;BMP280;29429;51.074;13.764;2023-11-21T13:48:44;99869.63;;;6.28
43802;BMP280;29429;51.074;13.764;2023-11-21T13:51:18;99878.88;;;6.32
43802;BMP280;29429;51.074;13.764;2023-11-21T13:53:47;99887.47;;;6.34
43802;BMP280;29429;51.074;13.764;2023-11-21T13:56:19;99882.16;;;6.34
43802;BMP280;29429;51.074;13.764;2023-11-21T13:58:52;99894.81;;;6.24
43802;BMP280;29429;51.074;13.764;2023-11-21T14:01:25;99886.41;;;6.12
43802;BMP280;29429;51.074;13.764;2023-11-21T14:04:02;99910.19;;;6.20
43802;BMP280;29429;51.074;13.764;2023-11-21T14:06:49;99911.25;;;6.11
43802;BMP280;29429;51.074;13.764;2023-11-21T14:09:19;99914.06;;;6.09
43802;BMP280;29429;51.074;13.764;2023-11-21T14:11:56;99911.09;;;6.04
43802;BMP280;29429;51.074;13.764;2023-11-21T14:14:27;99919.06;;;5.96
43802;BMP280;29429;51.074;13.764;2023-11-21T14:16:57;99913.66;;;5.90
43802;BMP280;29429;51.074;13.764;2023-11-21T14:19:25;99918.94;;;5.90
43802;BMP280;29429;51.074;13.764;2023-11-21T14:21:58;99927.03;;;5.80
43802;BMP280;29429;51.074;13.764;2023-11-21T14:24:25;99915.78;;;5.78
43802;BMP280;29429;51.074;13.764;2023-11-21T14:26:52;99924.72;;;5.77
43802;BMP280;29429;51.074;13.764;2023-11-21T14:29:20;99929.03;;;5.78